.
WxDataArchive / Data Records for 2014-11-29
2014-11-28 November 2014 2014-11-30

Data Records for Saturday, 29 November 2014

Time	Temp	Chill	HIndex	Humid	Dewpt	 Wind 	HiWind	WindDir	Rain 	Barom
-----	----	-----	------	-----	-----	------	------	-------	-----	-----
00:00	31.6	31.6	31.6	62	20.1	0	1	68	0.00	30.031 
00:05	31.6	31.6	31.6	62	20.1	0	2	68	0.00	30.031 
00:10	31.8	31.8	31.8	62	20.3	0	1	68	0.00	30.031 
00:15	31.8	31.8	31.8	62	20.3	0	1	68	0.00	30.027 
00:20	31.8	31.8	31.8	62	20.3	0	2	68	0.00	30.027 
00:25	31.8	31.8	31.8	62	20.3	0	1	68	0.00	30.027 
00:30	31.9	31.9	31.9	62	20.4	0	2	68	0.00	30.018 
00:35	31.9	31.9	31.9	62	20.4	0	1	68	0.00	30.018 
00:40	31.9	31.9	31.9	62	20.4	0	2	68	0.00	30.018 
00:45	32.1	32.1	32.1	62	20.6	0	1	68	0.00	30.028 
00:50	32.1	32.1	32.1	62	20.6	0	1	68	0.00	30.028 
00:55	32.1	32.1	32.1	62	20.6	0	1	68	0.00	30.028 
01:00	32.2	32.2	32.2	62	20.7	0	1	68	0.00	30.024 
01:05	32.2	32.2	32.2	62	20.7	0	2	68	0.00	30.024 
01:10	32.2	32.2	32.2	62	20.7	0	2	68	0.00	30.024 
01:15	32.2	32.2	32.2	62	20.7	0	2	68	0.00	29.994 
01:20	32.2	32.2	32.2	62	20.7	0	1	68	0.00	29.994 
01:25	32.2	32.2	32.2	63	21.0	0	2	68	0.00	29.994 
01:30	32.2	32.2	32.2	63	21.0	0	2	68	0.00	30.003 
01:35	32.1	32.1	32.1	63	20.9	0	0	---	0.00	30.003 
01:40	32.1	32.1	32.1	63	20.9	0	0	---	0.00	30.003 
01:45	32.1	32.1	32.1	64	21.3	0	1	68	0.00	30.012 
01:50	32.1	32.1	32.1	64	21.3	0	0	---	0.00	30.012 
01:55	32.1	32.1	32.1	64	21.3	0	0	---	0.00	30.012 
02:00	31.9	31.9	31.9	64	21.1	0	0	---	0.00	30.015 
02:05	31.9	31.9	31.9	65	21.5	0	0	---	0.00	30.015 
02:10	31.8	31.8	31.8	65	21.4	0	0	---	0.00	30.015 
02:15	31.8	31.8	31.8	65	21.4	0	1	68	0.00	30.010 
02:20	31.8	31.8	31.8	65	21.4	0	1	68	0.00	30.010 
02:25	31.8	31.8	31.8	64	21.0	0	1	68	0.00	30.010 
02:30	31.8	31.8	31.8	64	21.0	0	1	68	0.00	30.005 
02:35	31.9	31.9	31.9	64	21.1	0	2	68	0.00	30.005 
02:40	31.9	31.9	31.9	64	21.1	0	1	68	0.00	30.005 
02:45	31.9	31.9	31.9	64	21.1	0	3	68	0.00	29.998 
02:50	31.9	31.9	31.9	64	21.1	1	3	90	0.00	29.998 
02:55	31.9	31.9	31.9	64	21.1	0	2	112	0.00	29.998 
03:00	31.9	31.9	31.9	64	21.1	0	2	112	0.00	29.994 
03:05	31.8	31.8	31.8	65	21.4	0	1	112	0.00	29.994 
03:10	31.8	31.8	31.8	65	21.4	0	3	112	0.00	29.994 
03:15	31.6	31.6	31.6	65	21.2	0	3	112	0.00	29.993 
03:20	31.6	31.6	31.6	65	21.2	0	1	112	0.00	29.993 
03:25	31.5	31.5	31.5	65	21.1	0	2	112	0.00	29.993 
03:30	31.5	31.5	31.5	65	21.1	0	2	112	0.00	29.991 
03:35	31.3	31.3	31.3	65	20.9	0	3	112	0.00	29.991 
03:40	31.3	31.3	31.3	65	20.9	0	3	112	0.00	29.991 
03:45	31.3	31.3	31.3	66	21.3	0	2	112	0.00	29.981 
03:50	31.2	31.2	31.2	66	21.2	1	3	90	0.00	29.981 
03:55	31.2	31.2	31.2	66	21.2	0	3	112	0.00	29.981 
04:00	31.2	31.2	31.2	66	21.2	1	3	90	0.00	29.971 
04:05	31.3	31.3	31.3	66	21.3	1	4	90	0.00	29.971 
04:10	31.3	31.3	31.3	66	21.3	1	3	90	0.00	29.971 
04:15	31.5	31.5	31.5	66	21.5	1	3	112	0.00	29.960 
04:20	31.5	31.5	31.5	66	21.5	1	2	112	0.00	29.960 
04:25	31.5	31.5	31.5	66	21.5	1	3	112	0.00	29.960 
04:30	31.5	31.5	31.5	66	21.5	0	3	112	0.00	29.953 
04:35	31.3	31.3	31.3	66	21.3	0	3	112	0.00	29.953 
04:40	31.3	31.3	31.3	66	21.3	1	3	112	0.00	29.953 
04:45	31.3	31.3	31.3	66	21.3	1	4	112	0.00	29.946 
04:50	31.3	31.3	31.3	66	21.3	1	3	112	0.00	29.946 
04:55	31.3	31.3	31.3	66	21.3	0	3	112	0.00	29.946 
05:00	31.2	31.2	31.2	67	21.5	0	1	112	0.00	29.942 
05:05	31.0	31.0	31.0	67	21.3	0	2	135	0.00	29.942 
05:10	31.0	31.0	31.0	68	21.7	0	3	135	0.00	29.942 
05:15	30.9	30.9	30.9	68	21.6	0	3	135	0.00	29.934 
05:20	30.7	30.7	30.7	69	21.8	0	3	112	0.00	29.934 
05:25	30.6	30.6	30.6	69	21.7	0	1	112	0.00	29.934 
05:30	30.4	30.4	30.4	69	21.5	0	1	112	0.00	29.936 
05:35	30.4	30.4	30.4	70	21.8	0	2	112	0.00	29.936 
05:40	30.3	30.3	30.3	70	21.7	0	1	112	0.00	29.936 
05:45	30.1	30.1	30.1	70	21.5	0	1	112	0.00	29.932 
05:50	30.0	30.0	30.0	71	21.8	0	1	112	0.00	29.932 
05:55	29.8	29.8	29.8	71	21.6	0	2	135	0.00	29.932 
06:00	29.8	29.8	29.8	72	21.9	0	1	135	0.00	29.930 
06:05	29.7	29.7	29.7	72	21.8	0	1	135	0.00	29.930 
06:10	29.7	29.7	29.7	72	21.8	0	1	135	0.00	29.930 
06:15	29.7	29.7	29.7	73	22.1	0	1	135	0.00	29.930 
06:20	29.5	29.5	29.5	73	21.9	0	1	135	0.00	29.930 
06:25	29.5	29.5	29.5	73	21.9	0	1	135	0.00	29.930 
06:30	29.4	29.4	29.4	73	21.8	0	1	135	0.00	29.935 
06:35	29.4	29.4	29.4	73	21.8	0	1	135	0.00	29.935 
06:40	29.4	29.4	29.4	74	22.2	0	1	135	0.00	29.935 
06:45	29.4	29.4	29.4	74	22.2	0	1	135	0.00	29.935 
06:50	29.5	29.5	29.5	74	22.3	0	1	135	0.00	29.935 
06:55	29.4	29.4	29.4	74	22.2	0	1	135	0.00	29.935 
07:00	29.5	29.5	29.5	74	22.3	0	2	135	0.00	29.926 
07:05	29.5	29.5	29.5	74	22.3	0	2	135	0.00	29.926 
07:10	29.5	29.5	29.5	74	22.3	0	1	135	0.00	29.926 
07:15	29.5	29.5	29.5	74	22.3	0	1	135	0.00	29.918 
07:20	29.5	29.5	29.5	74	22.3	0	2	135	0.00	29.918 
07:25	29.7	29.7	29.7	74	22.4	0	1	135	0.00	29.918 
07:30	29.8	29.8	29.8	74	22.5	0	3	112	0.00	29.914 
07:35	29.8	29.8	29.8	74	22.5	0	2	112	0.00	29.914 
07:40	30.1	30.1	30.1	74	22.8	0	3	135	0.00	29.914 
07:45	30.1	30.1	30.1	74	22.8	0	1	135	0.00	29.910 
07:50	30.3	30.3	30.3	74	23.0	0	2	135	0.00	29.910 
07:55	30.4	30.4	30.4	74	23.1	1	4	135	0.00	29.910 
08:00	30.6	30.6	30.6	74	23.3	0	2	90	0.00	29.911 
08:05	30.7	30.7	30.7	74	23.4	0	1	90	0.00	29.911 
08:10	30.9	30.9	30.9	73	23.3	0	2	90	0.00	29.911 
08:15	31.2	31.2	31.2	73	23.6	0	2	112	0.00	29.904 
08:20	31.3	31.3	31.3	73	23.7	1	3	112	0.00	29.904 
08:25	31.6	31.6	31.6	72	23.6	1	2	90	0.00	29.904 
08:30	31.9	31.9	31.9	72	23.9	0	3	90	0.00	29.906 
08:35	32.2	32.2	32.2	71	23.9	0	3	112	0.00	29.906 
08:40	32.5	32.5	32.5	71	24.2	0	4	112	0.00	29.906 
08:45	32.8	32.8	32.8	70	24.1	2	7	112	0.00	29.900 
08:50	33.2	33.2	33.2	69	24.2	1	3	112	0.00	29.900 
08:55	33.4	33.4	33.4	69	24.3	1	4	90	0.00	29.900 
09:00	33.7	33.7	33.7	69	24.6	1	4	112	0.00	29.900 
09:05	33.8	33.8	33.8	68	24.4	1	3	68	0.00	29.900 
09:10	34.1	34.1	34.1	68	24.7	1	3	135	0.00	29.900 
09:15	34.1	34.1	34.1	67	24.3	1	3	135	0.00	29.899 
09:20	34.3	34.3	34.3	67	24.5	1	4	90	0.00	29.899 
09:25	34.9	34.9	34.9	66	24.7	1	6	90	0.00	29.899 
09:30	35.3	35.3	35.3	65	24.7	1	4	68	0.00	29.895 
09:35	35.8	35.8	35.8	65	25.2	1	5	112	0.00	29.895 
09:40	36.0	36.0	36.0	65	25.4	2	5	112	0.00	29.895 
09:45	36.3	36.3	36.3	65	25.7	1	6	90	0.00	29.889 
09:50	36.6	36.6	36.6	64	25.6	2	5	90	0.00	29.889 
09:55	37.0	37.0	37.0	63	25.6	2	7	90	0.00	29.889 
10:00	37.3	37.3	37.3	63	25.9	1	5	90	0.00	29.883 
10:05	37.8	37.8	37.8	63	26.4	2	6	112	0.00	29.883 
10:10	38.2	38.2	38.2	63	26.7	2	5	68	0.00	29.883 
10:15	38.5	38.5	38.5	62	26.6	1	5	90	0.00	29.881 
10:20	38.9	38.9	38.9	62	27.0	1	5	90	0.00	29.881 
10:25	39.2	39.2	39.2	61	26.9	2	6	112	0.00	29.881 
10:30	39.5	39.5	39.5	62	27.6	2	5	90	0.00	29.876 
10:35	39.8	39.8	39.8	62	27.9	0	2	22	0.00	29.876 
10:40	40.2	40.2	40.2	62	28.2	0	4	0	0.00	29.876 
10:45	40.5	40.5	40.5	61	28.1	1	6	90	0.00	29.873 
10:50	40.8	40.8	40.8	61	28.4	2	6	68	0.00	29.873 
10:55	40.9	40.9	40.9	60	28.1	2	6	90	0.00	29.873 
11:00	41.1	41.1	41.1	61	28.7	1	6	45	0.00	29.869 
11:05	41.3	41.3	41.3	61	28.9	1	5	248	0.00	29.869 
11:10	41.8	41.8	41.8	61	29.4	1	4	68	0.00	29.869 
11:15	42.1	42.1	42.1	61	29.6	0	3	248	0.00	29.857 
11:20	42.5	42.5	42.5	60	29.6	0	2	270	0.00	29.857 
11:25	42.8	42.8	42.8	60	29.9	1	5	270	0.00	29.857 
11:30	42.9	42.9	42.9	59	29.6	2	6	90	0.00	29.852 
11:35	43.1	43.1	43.1	60	30.2	1	4	0	0.00	29.852 
11:40	43.1	43.1	43.1	59	29.8	2	6	248	0.00	29.852 
11:45	43.3	43.3	43.3	61	30.8	0	3	248	0.00	29.841 
11:50	43.8	43.8	43.8	61	31.2	1	3	90	0.00	29.841 
11:55	43.9	43.9	43.9	59	30.5	2	7	90	0.00	29.841 
12:00	44.1	44.1	44.1	60	31.1	1	6	248	0.00	29.831 
12:05	44.3	44.3	44.3	61	31.7	1	5	90	0.00	29.831 
12:10	44.6	44.6	44.6	61	32.0	1	5	68	0.00	29.831 
12:15	44.8	44.8	44.8	60	31.8	1	6	68	0.00	29.821 
12:20	45.2	45.2	45.2	61	32.6	1	6	68	0.00	29.821 
12:25	45.4	45.4	45.4	61	32.7	2	9	90	0.00	29.821 
12:30	45.7	45.7	45.7	61	33.0	1	6	68	0.00	29.806 
12:35	45.7	45.7	45.7	62	33.4	1	4	45	0.00	29.806 
12:40	45.8	45.8	45.8	62	33.5	1	4	90	0.00	29.806 
12:45	45.8	45.8	45.8	63	33.9	1	9	248	0.00	29.794 
12:50	46.0	46.0	46.0	62	33.7	1	4	270	0.00	29.794 
12:55	46.1	46.1	46.1	62	33.8	1	4	248	0.00	29.794 
13:00	46.4	46.4	46.4	63	34.5	1	3	248	0.00	29.784 
13:05	46.8	46.8	46.8	62	34.5	2	5	68	0.00	29.784 
13:10	47.0	47.0	47.0	62	34.7	1	4	248	0.00	29.784 
13:15	47.0	47.0	47.0	62	34.7	3	6	90	0.00	29.775 
13:20	47.1	47.1	47.1	63	35.2	1	4	292	0.00	29.775 
13:25	47.4	47.4	47.4	62	35.0	1	5	112	0.00	29.775 
13:30	47.7	47.7	47.7	62	35.3	1	4	45	0.00	29.764 
13:35	47.6	47.6	47.6	63	35.6	1	5	68	0.00	29.764 
13:40	47.4	47.4	47.4	63	35.4	1	3	68	0.00	29.764 
13:45	47.6	47.6	47.6	64	36.0	1	6	248	0.00	29.759 
13:50	48.0	48.0	48.0	63	36.0	1	4	68	0.00	29.759 
13:55	48.5	48.5	48.5	63	36.5	1	5	112	0.00	29.759 
14:00	48.6	48.6	48.6	62	36.2	1	5	248	0.00	29.759 
14:05	48.9	48.9	48.9	62	36.5	1	6	90	0.00	29.759 
14:10	48.9	48.9	48.9	63	36.9	1	7	292	0.00	29.759 
14:15	49.1	49.1	49.1	63	37.1	1	5	270	0.00	29.755 
14:20	49.2	49.2	49.2	64	37.5	1	4	45	0.00	29.755 
14:25	49.2	49.2	49.2	64	37.5	1	4	90	0.00	29.755 
14:30	49.1	49.1	49.1	64	37.5	1	4	68	0.00	29.746 
14:35	49.2	49.2	49.2	64	37.5	1	4	225	0.00	29.746 
14:40	49.2	49.2	49.2	65	37.9	1	3	90	0.00	29.746 
14:45	49.4	49.4	49.4	65	38.1	1	3	248	0.00	29.738 
14:50	49.5	49.5	49.5	65	38.2	1	3	292	0.00	29.738 
14:55	49.6	49.6	49.6	66	38.7	1	3	292	0.00	29.738 
15:00	49.8	49.8	49.8	66	38.9	1	3	248	0.00	29.735 
15:05	49.9	49.9	49.9	66	39.0	1	5	248	0.00	29.735 
15:10	49.9	49.9	49.9	66	39.0	0	2	248	0.00	29.735 
15:15	49.9	49.9	49.9	67	39.4	2	6	248	0.00	29.732 
15:20	49.8	49.8	49.8	67	39.3	1	7	248	0.00	29.732 
15:25	49.8	49.8	49.8	68	39.7	0	2	248	0.00	29.732 
15:30	49.8	49.8	49.8	67	39.3	1	4	292	0.00	29.734 
15:35	49.6	49.6	49.6	67	39.1	1	5	292	0.00	29.734 
15:40	49.6	49.6	49.6	67	39.1	2	5	248	0.00	29.734 
15:45	49.6	49.6	49.6	68	39.5	1	4	248	0.00	29.732 
15:50	49.6	49.6	49.6	68	39.5	1	4	248	0.00	29.732 
15:55	49.6	49.6	49.6	68	39.5	1	4	292	0.00	29.732 
16:00	49.5	49.5	49.5	69	39.8	1	4	22	0.00	29.736 
16:05	49.5	49.5	49.5	69	39.8	1	3	248	0.00	29.736 
16:10	49.5	49.5	49.5	69	39.8	1	7	270	0.00	29.736 
16:15	49.4	49.4	49.4	69	39.7	1	3	270	0.00	29.739 
16:20	49.4	49.4	49.4	69	39.7	1	4	248	0.00	29.739 
16:25	49.5	49.5	49.5	69	39.8	1	6	225	0.00	29.739 
16:30	49.5	49.5	49.5	69	39.8	0	3	248	0.00	29.738 
16:35	49.5	49.5	49.5	69	39.8	1	4	225	0.00	29.738 
16:40	49.5	49.5	49.5	69	39.8	0	3	270	0.00	29.738 
16:45	49.5	49.5	49.5	70	40.1	0	3	292	0.00	29.739 
16:50	49.5	49.5	49.5	70	40.1	0	2	292	0.00	29.739 
16:55	49.4	49.4	49.4	70	40.0	0	3	270	0.00	29.739 
17:00	49.4	49.4	49.4	70	40.0	0	2	292	0.00	29.738 
17:05	49.4	49.4	49.4	71	40.4	0	1	292	0.00	29.738 
17:10	49.2	49.2	49.2	71	40.2	0	3	292	0.00	29.738 
17:15	49.1	49.1	49.1	71	40.1	0	1	292	0.00	29.740 
17:20	48.9	48.9	48.9	72	40.3	0	1	292	0.00	29.740 
17:25	48.8	48.8	48.8	73	40.5	0	0	---	0.00	29.740 
17:30	48.6	48.6	48.6	73	40.3	0	0	---	0.00	29.738 
17:35	48.6	48.6	48.6	73	40.3	0	1	292	0.00	29.738 
17:40	48.5	48.5	48.5	74	40.6	0	3	68	0.00	29.738 
17:45	48.5	48.5	48.5	74	40.6	0	0	---	0.00	29.738 
17:50	48.3	48.3	48.3	74	40.4	0	1	68	0.00	29.738 
17:55	48.3	48.3	48.3	75	40.7	0	2	68	0.00	29.738 
18:00	48.5	48.5	48.5	75	40.9	0	2	248	0.00	29.735 
18:05	48.6	48.6	48.6	75	41.0	0	2	248	0.00	29.735 
18:10	48.8	48.8	48.8	76	41.6	1	4	248	0.00	29.735 
18:15	49.1	49.1	49.1	76	41.9	1	3	248	0.00	29.725 
18:20	49.2	49.2	49.2	77	42.3	1	3	248	0.00	29.725 
18:25	49.4	49.4	49.4	77	42.5	1	7	248	0.00	29.725 
18:30	49.5	49.5	49.5	77	42.6	1	5	248	0.00	29.724 
18:35	49.6	49.6	49.6	77	42.7	1	6	248	0.00	29.724 
18:40	49.8	49.8	49.8	77	42.9	1	5	248	0.00	29.724 
18:45	49.8	49.8	49.8	77	42.9	1	3	248	0.00	29.727 
18:50	49.8	49.8	49.8	78	43.2	1	6	248	0.00	29.727 
18:55	49.9	49.9	49.9	78	43.3	1	3	248	0.00	29.727 
19:00	49.9	49.9	49.9	78	43.3	1	4	248	0.00	29.726 
19:05	49.9	49.9	49.9	79	43.6	1	4	248	0.00	29.726 
19:10	49.9	49.9	49.9	79	43.6	2	5	248	0.00	29.726 
19:15	50.1	50.1	50.1	79	43.8	1	4	225	0.00	29.726 
19:20	50.1	50.1	50.1	80	44.2	1	6	248	0.00	29.726 
19:25	50.1	50.1	50.1	80	44.2	2	6	270	0.00	29.726 
19:30	50.2	50.2	50.2	80	44.3	2	6	248	0.00	29.732 
19:35	50.2	50.2	50.2	80	44.3	1	4	248	0.00	29.732 
19:40	50.2	50.2	50.2	80	44.3	1	7	248	0.00	29.732 
19:45	50.4	50.4	50.4	80	44.5	1	6	248	0.00	29.737 
19:50	50.2	50.2	50.2	81	44.6	1	9	248	0.00	29.737 
19:55	50.4	50.4	50.4	81	44.8	1	5	248	0.00	29.737 
20:00	50.4	50.4	50.4	81	44.8	1	6	248	0.00	29.740 
20:05	50.4	50.4	50.4	81	44.8	2	9	248	0.00	29.740 
20:10	50.5	50.5	50.5	81	44.9	1	5	270	0.00	29.740 
20:15	50.5	50.5	50.5	81	44.9	2	5	248	0.00	29.738 
20:20	50.5	50.5	50.5	81	44.9	1	5	248	0.00	29.738 
20:25	50.5	50.5	50.5	81	44.9	1	6	248	0.00	29.738 
20:30	50.7	50.7	50.7	81	45.1	1	5	248	0.00	29.735 
20:35	50.7	50.7	50.7	81	45.1	2	6	248	0.00	29.735 
20:40	50.7	50.7	50.7	81	45.1	1	5	248	0.00	29.735 
20:45	50.7	50.7	50.7	81	45.1	1	4	248	0.00	29.734 
20:50	50.8	50.8	50.8	81	45.2	1	5	270	0.00	29.734 
20:55	50.8	50.8	50.8	81	45.2	1	6	248	0.00	29.734 
21:00	50.8	50.8	50.8	81	45.2	1	5	248	0.00	29.732 
21:05	51.0	51.0	51.0	81	45.4	2	9	248	0.00	29.732 
21:10	51.0	51.0	51.0	81	45.4	1	3	270	0.00	29.732 
21:15	51.0	51.0	51.0	81	45.4	1	4	248	0.00	29.728 
21:20	51.0	51.0	51.0	81	45.4	1	3	248	0.00	29.728 
21:25	51.0	51.0	51.0	81	45.4	1	5	248	0.00	29.728 
21:30	51.0	51.0	51.0	81	45.4	1	4	248	0.00	29.730 
21:35	51.1	51.1	51.1	81	45.5	1	4	248	0.00	29.730 
21:40	51.1	51.1	51.1	81	45.5	1	5	248	0.00	29.730 
21:45	51.1	51.1	51.1	81	45.5	0	2	248	0.00	29.735 
21:50	51.1	51.1	51.1	81	45.5	0	3	248	0.00	29.735 
21:55	51.1	51.1	51.1	81	45.5	0	2	248	0.00	29.735 
22:00	51.1	51.1	51.1	81	45.5	1	6	248	0.00	29.734 
22:05	51.3	51.3	51.3	81	45.7	0	1	248	0.00	29.734 
22:10	51.3	51.3	51.3	81	45.7	0	3	248	0.00	29.734 
22:15	51.3	51.3	51.3	81	45.7	0	3	248	0.00	29.737 
22:20	51.3	51.3	51.3	81	45.7	0	2	248	0.00	29.737 
22:25	51.4	51.4	51.4	81	45.8	0	2	248	0.00	29.737 
22:30	51.4	51.4	51.4	81	45.8	0	2	248	0.00	29.737 
22:35	51.4	51.4	51.4	82	46.1	0	3	248	0.00	29.737 
22:40	51.4	51.4	51.4	81	45.8	0	3	248	0.00	29.737 
22:45	51.4	51.4	51.4	81	45.8	0	1	248	0.00	29.738 
22:50	51.3	51.3	51.3	82	46.0	0	2	270	0.00	29.738 
22:55	51.1	51.1	51.1	82	45.8	0	2	270	0.00	29.738 
23:00	51.1	51.1	51.1	82	45.8	0	3	270	0.00	29.732 
23:05	51.1	51.1	51.1	83	46.1	0	3	248	0.00	29.732 
23:10	51.1	51.1	51.1	83	46.1	1	3	270	0.00	29.732 
23:15	51.1	51.1	51.1	83	46.1	0	2	270	0.00	29.735 
23:20	51.1	51.1	51.1	83	46.1	1	4	248	0.00	29.735 
23:25	51.3	51.3	51.3	83	46.3	0	3	248	0.00	29.735 
23:30	51.3	51.3	51.3	83	46.3	1	4	248	0.00	29.739 
23:35	51.4	51.4	51.4	83	46.4	1	3	248	0.00	29.739 
23:40	51.4	51.4	51.4	83	46.4	1	5	248	0.00	29.739 
23:45	51.6	51.6	51.6	83	46.6	1	5	248	0.00	29.737 
23:50	51.6	51.6	51.6	83	46.6	0	2	248	0.00	29.737 
23:55	51.6	51.6	51.6	83	46.6	1	7	248	0.00	29.737 

CoCoRaHS
IN-AL-39
A2 Web Hosting
Creative Commons License
GoDaddy
search engine by freefind advanced

loaded 2018-11-17 14:36:07 • last modified 2010-11-18 10:43:29
Privacy PolicyDisclaimer
• wx.awcolley.com is powered by PmWiki v.2002016 •
• all content (unless otherwise noted) © 2018 A W Colley